Oletha, Texas
Current Conditions -  °F | °C
As of 2:15 PM on Wednesday 26 Nov 2014 (Local Time) from KLXY Reporting Station
Clear Clear  
Wind Chill: 66°   Ceiling: Unl
Heat Index: 66°   Visibility: 10mi
Dew Point: 30°   Wind: 7mph
Humidity: 27%   Direction: 260°W
Pressure: 30.15"   Gusts: NA
Location:  31.4027°N, 96.4988°W
Report Text: KLXY 262015Z AUTO 26006KT 10SM CLR 19/M01 A3015 RMK AO2 T01871009
Loading
Personal Weather Stations






























Interactive Weather Map New forecast layout! Learn more

10-Day Weather Forecast

Advertisements
Track Severe Weather on mobile